sensor_id;sensor_type;location;lat;lon;timestamp;P1;durP1;ratioP1;P2;durP2;ratioP2
58123;SDS011;46725;48.068;20.832;2022-10-15T00:01:05;47.55;;;28.20;;
58123;SDS011;46725;48.068;20.832;2022-10-15T00:03:33;51.83;;;28.35;;
58123;SDS011;46725;48.068;20.832;2022-10-15T00:06:02;46.20;;;27.55;;
58123;SDS011;46725;48.068;20.832;2022-10-15T00:08:28;50.20;;;28.40;;
58123;SDS011;46725;48.068;20.832;2022-10-15T00:10:54;48.30;;;29.50;;
58123;SDS011;46725;48.068;20.832;2022-10-15T00:13:20;48.72;;;28.33;;
58123;SDS011;46725;48.068;20.832;2022-10-15T00:15:46;48.55;;;27.70;;
58123;SDS011;46725;48.068;20.832;2022-10-15T00:18:12;51.60;;;29.17;;
58123;SDS011;46725;48.068;20.832;2022-10-15T00:20:40;52.92;;;28.48;;
58123;SDS011;46725;48.068;20.832;2022-10-15T00:23:06;56.30;;;30.25;;
58123;SDS011;46725;48.068;20.832;2022-10-15T00:25:33;52.60;;;29.75;;
58123;SDS011;46725;48.068;20.832;2022-10-15T00:27:59;50.45;;;29.38;;
58123;SDS011;46725;48.068;20.832;2022-10-15T00:30:25;52.13;;;29.23;;
58123;SDS011;46725;48.068;20.832;2022-10-15T00:32:51;52.17;;;31.48;;
58123;SDS011;46725;48.068;20.832;2022-10-15T00:35:17;54.03;;;30.25;;
58123;SDS011;46725;48.068;20.832;2022-10-15T00:37:43;53.97;;;30.10;;
58123;SDS011;46725;48.068;20.832;2022-10-15T00:40:10;51.83;;;29.17;;
58123;SDS011;46725;48.068;20.832;2022-10-15T00:42:39;53.13;;;28.70;;
58123;SDS011;46725;48.068;20.832;2022-10-15T00:45:07;47.20;;;29.02;;
58123;SDS011;46725;48.068;20.832;2022-10-15T00:47:36;47.83;;;28.38;;
58123;SDS011;46725;48.068;20.832;2022-10-15T00:50:05;48.60;;;28.98;;
58123;SDS011;46725;48.068;20.832;2022-10-15T00:55:17;46.65;;;26.25;;
58123;SDS011;46725;48.068;20.832;2022-10-15T00:57:47;49.45;;;27.58;;
58123;SDS011;46725;48.068;20.832;2022-10-15T01:00:14;50.72;;;28.95;;
58123;SDS011;46725;48.068;20.832;2022-10-15T01:02:42;50.47;;;27.25;;
58123;SDS011;46725;48.068;20.832;2022-10-15T01:05:08;51.95;;;28.52;;
58123;SDS011;46725;48.068;20.832;2022-10-15T01:07:35;46.17;;;27.08;;
58123;SDS011;46725;48.068;20.832;2022-10-15T01:10:01;44.55;;;26.40;;
58123;SDS011;46725;48.068;20.832;2022-10-15T01:17:43;46.80;;;26.90;;
58123;SDS011;46725;48.068;20.832;2022-10-15T01:27:53;49.28;;;26.20;;
58123;SDS011;46725;48.068;20.832;2022-10-15T01:32:50;43.58;;;25.52;;
58123;SDS011;46725;48.068;20.832;2022-10-15T01:40:28;41.17;;;23.73;;
58123;SDS011;46725;48.068;20.832;2022-10-15T01:42:57;44.90;;;25.13;;
58123;SDS011;46725;48.068;20.832;2022-10-15T01:45:33;43.33;;;25.10;;
58123;SDS011;46725;48.068;20.832;2022-10-15T01:48:10;46.35;;;25.85;;
58123;SDS011;46725;48.068;20.832;2022-10-15T01:50:41;43.50;;;25.50;;
58123;SDS011;46725;48.068;20.832;2022-10-15T01:53:09;45.92;;;25.23;;
58123;SDS011;46725;48.068;20.832;2022-10-15T01:55:35;40.55;;;23.50;;
58123;SDS011;46725;48.068;20.832;2022-10-15T01:58:02;40.45;;;23.75;;
58123;SDS011;46725;48.068;20.832;2022-10-15T02:00:29;46.22;;;24.40;;
58123;SDS011;46725;48.068;20.832;2022-10-15T02:03:02;42.58;;;23.67;;
58123;SDS011;46725;48.068;20.832;2022-10-15T02:05:30;42.85;;;23.15;;
58123;SDS011;46725;48.068;20.832;2022-10-15T02:10:54;45.85;;;24.35;;
58123;SDS011;46725;48.068;20.832;2022-10-15T02:13:26;44.75;;;22.55;;
58123;SDS011;46725;48.068;20.832;2022-10-15T02:18:36;47.03;;;24.92;;
58123;SDS011;46725;48.068;20.832;2022-10-15T02:26:17;46.45;;;24.00;;
58123;SDS011;46725;48.068;20.832;2022-10-15T02:28:44;46.03;;;23.73;;
58123;SDS011;46725;48.068;20.832;2022-10-15T02:31:11;44.15;;;23.38;;
58123;SDS011;46725;48.068;20.832;2022-10-15T02:33:39;42.95;;;23.90;;
58123;SDS011;46725;48.068;20.832;2022-10-15T02:36:05;44.83;;;24.95;;
58123;SDS011;46725;48.068;20.832;2022-10-15T02:38:31;48.50;;;24.83;;
58123;SDS011;46725;48.068;20.832;2022-10-15T02:40:59;45.35;;;25.67;;
58123;SDS011;46725;48.068;20.832;2022-10-15T02:43:25;44.70;;;24.17;;
58123;SDS011;46725;48.068;20.832;2022-10-15T02:45:51;44.20;;;25.10;;
58123;SDS011;46725;48.068;20.832;2022-10-15T02:48:17;43.97;;;24.85;;
58123;SDS011;46725;48.068;20.832;2022-10-15T02:50:43;41.45;;;23.67;;
58123;SDS011;46725;48.068;20.832;2022-10-15T02:53:10;44.00;;;23.63;;
58123;SDS011;46725;48.068;20.832;2022-10-15T02:55:36;45.03;;;24.98;;
58123;SDS011;46725;48.068;20.832;2022-10-15T02:58:02;45.78;;;26.45;;
58123;SDS011;46725;48.068;20.832;2022-10-15T03:00:28;50.42;;;25.75;;
58123;SDS011;46725;48.068;20.832;2022-10-15T03:02:54;48.22;;;25.55;;
58123;SDS011;46725;48.068;20.832;2022-10-15T03:05:20;45.80;;;24.85;;
58123;SDS011;46725;48.068;20.832;2022-10-15T03:07:46;47.67;;;26.50;;
58123;SDS011;46725;48.068;20.832;2022-10-15T03:10:12;45.58;;;25.33;;
58123;SDS011;46725;48.068;20.832;2022-10-15T03:12:38;46.00;;;26.05;;
58123;SDS011;46725;48.068;20.832;2022-10-15T03:15:05;47.22;;;25.42;;
58123;SDS011;46725;48.068;20.832;2022-10-15T03:17:31;45.40;;;25.17;;
58123;SDS011;46725;48.068;20.832;2022-10-15T03:19:57;48.55;;;26.00;;
58123;SDS011;46725;48.068;20.832;2022-10-15T03:22:23;46.00;;;23.67;;
58123;SDS011;46725;48.068;20.832;2022-10-15T03:24:49;43.40;;;25.15;;
58123;SDS011;46725;48.068;20.832;2022-10-15T03:27:15;42.10;;;23.52;;
58123;SDS011;46725;48.068;20.832;2022-10-15T03:29:41;43.90;;;25.20;;
58123;SDS011;46725;48.068;20.832;2022-10-15T03:32:07;43.75;;;24.75;;
58123;SDS011;46725;48.068;20.832;2022-10-15T03:34:33;44.60;;;24.58;;
58123;SDS011;46725;48.068;20.832;2022-10-15T03:36:59;42.70;;;23.15;;
58123;SDS011;46725;48.068;20.832;2022-10-15T03:39:25;50.50;;;25.10;;
58123;SDS011;46725;48.068;20.832;2022-10-15T03:41:52;47.90;;;25.83;;
58123;SDS011;46725;48.068;20.832;2022-10-15T03:44:18;45.75;;;25.52;;
58123;SDS011;46725;48.068;20.832;2022-10-15T03:46:44;45.22;;;25.45;;
58123;SDS011;46725;48.068;20.832;2022-10-15T03:49:10;50.92;;;25.55;;
58123;SDS011;46725;48.068;20.832;2022-10-15T03:51:36;45.83;;;25.80;;
58123;SDS011;46725;48.068;20.832;2022-10-15T03:54:02;43.92;;;25.35;;
58123;SDS011;46725;48.068;20.832;2022-10-15T03:56:29;51.45;;;27.02;;
58123;SDS011;46725;48.068;20.832;2022-10-15T03:58:55;49.83;;;26.65;;
58123;SDS011;46725;48.068;20.832;2022-10-15T04:01:21;45.42;;;26.95;;
58123;SDS011;46725;48.068;20.832;2022-10-15T04:03:50;46.53;;;24.58;;
58123;SDS011;46725;48.068;20.832;2022-10-15T04:06:17;56.17;;;26.85;;
58123;SDS011;46725;48.068;20.832;2022-10-15T04:08:43;52.70;;;26.98;;
58123;SDS011;46725;48.068;20.832;2022-10-15T04:11:09;43.88;;;25.30;;
58123;SDS011;46725;48.068;20.832;2022-10-15T04:13:35;50.17;;;27.45;;
58123;SDS011;46725;48.068;20.832;2022-10-15T04:16:04;48.88;;;26.67;;
58123;SDS011;46725;48.068;20.832;2022-10-15T04:18:30;45.45;;;25.15;;
58123;SDS011;46725;48.068;20.832;2022-10-15T04:21:00;48.65;;;27.67;;
58123;SDS011;46725;48.068;20.832;2022-10-15T04:23:26;46.75;;;27.10;;
58123;SDS011;46725;48.068;20.832;2022-10-15T04:25:52;46.33;;;25.88;;
58123;SDS011;46725;48.068;20.832;2022-10-15T04:28:18;48.97;;;26.95;;
58123;SDS011;46725;48.068;20.832;2022-10-15T04:30:45;49.58;;;26.00;;
58123;SDS011;46725;48.068;20.832;2022-10-15T04:33:11;45.72;;;26.33;;
58123;SDS011;46725;48.068;20.832;2022-10-15T04:35:37;48.05;;;27.13;;
58123;SDS011;46725;48.068;20.832;2022-10-15T04:38:03;42.40;;;24.67;;
58123;SDS011;46725;48.068;20.832;2022-10-15T04:40:29;44.38;;;24.90;;
58123;SDS011;46725;48.068;20.832;2022-10-15T04:42:55;47.13;;;26.45;;
58123;SDS011;46725;48.068;20.832;2022-10-15T04:45:21;42.60;;;24.10;;
58123;SDS011;46725;48.068;20.832;2022-10-15T04:47:47;43.00;;;24.75;;
58123;SDS011;46725;48.068;20.832;2022-10-15T04:50:13;47.92;;;24.10;;
58123;SDS011;46725;48.068;20.832;2022-10-15T04:52:39;45.20;;;26.00;;
58123;SDS011;46725;48.068;20.832;2022-10-15T04:55:06;40.65;;;24.27;;
58123;SDS011;46725;48.068;20.832;2022-10-15T04:57:32;40.08;;;23.65;;
58123;SDS011;46725;48.068;20.832;2022-10-15T04:59:58;41.95;;;24.48;;
58123;SDS011;46725;48.068;20.832;2022-10-15T05:02:24;40.47;;;23.50;;
58123;SDS011;46725;48.068;20.832;2022-10-15T05:04:50;42.75;;;23.88;;
58123;SDS011;46725;48.068;20.832;2022-10-15T05:07:16;38.30;;;23.45;;
58123;SDS011;46725;48.068;20.832;2022-10-15T05:09:42;40.35;;;23.40;;
58123;SDS011;46725;48.068;20.832;2022-10-15T05:12:11;39.45;;;23.02;;
58123;SDS011;46725;48.068;20.832;2022-10-15T05:14:37;42.85;;;23.08;;
58123;SDS011;46725;48.068;20.832;2022-10-15T05:17:03;38.80;;;23.17;;
58123;SDS011;46725;48.068;20.832;2022-10-15T05:19:29;40.97;;;23.40;;
58123;SDS011;46725;48.068;20.832;2022-10-15T05:21:55;40.38;;;23.40;;
58123;SDS011;46725;48.068;20.832;2022-10-15T05:24:21;40.10;;;23.02;;
58123;SDS011;46725;48.068;20.832;2022-10-15T05:26:47;37.63;;;23.08;;
58123;SDS011;46725;48.068;20.832;2022-10-15T05:29:14;37.40;;;22.30;;
58123;SDS011;46725;48.068;20.832;2022-10-15T05:31:40;40.47;;;22.88;;
58123;SDS011;46725;48.068;20.832;2022-10-15T05:34:06;37.28;;;22.52;;
58123;SDS011;46725;48.068;20.832;2022-10-15T05:36:32;40.22;;;22.63;;
58123;SDS011;46725;48.068;20.832;2022-10-15T05:38:59;35.83;;;21.83;;
58123;SDS011;46725;48.068;20.832;2022-10-15T05:41:26;42.05;;;22.58;;
58123;SDS011;46725;48.068;20.832;2022-10-15T05:43:53;42.60;;;23.33;;
58123;SDS011;46725;48.068;20.832;2022-10-15T05:46:20;44.92;;;26.23;;
58123;SDS011;46725;48.068;20.832;2022-10-15T05:48:49;47.03;;;24.88;;
58123;SDS011;46725;48.068;20.832;2022-10-15T05:51:16;51.00;;;25.20;;
58123;SDS011;46725;48.068;20.832;2022-10-15T05:53:42;44.70;;;25.70;;
58123;SDS011;46725;48.068;20.832;2022-10-15T05:56:10;48.70;;;25.65;;
58123;SDS011;46725;48.068;20.832;2022-10-15T05:58:36;52.25;;;26.50;;
58123;SDS011;46725;48.068;20.832;2022-10-15T06:01:04;47.05;;;26.35;;
58123;SDS011;46725;48.068;20.832;2022-10-15T06:03:30;52.25;;;27.15;;
58123;SDS011;46725;48.068;20.832;2022-10-15T06:05:57;48.95;;;26.90;;
58123;SDS011;46725;48.068;20.832;2022-10-15T06:08:23;56.85;;;29.10;;
58123;SDS011;46725;48.068;20.832;2022-10-15T06:10:49;60.75;;;29.65;;
58123;SDS011;46725;48.068;20.832;2022-10-15T06:13:15;53.20;;;28.40;;
58123;SDS011;46725;48.068;20.832;2022-10-15T06:15:42;55.85;;;28.40;;
58123;SDS011;46725;48.068;20.832;2022-10-15T06:18:08;53.80;;;27.33;;
58123;SDS011;46725;48.068;20.832;2022-10-15T06:20:35;47.03;;;26.33;;
58123;SDS011;46725;48.068;20.832;2022-10-15T06:23:02;55.47;;;27.13;;
58123;SDS011;46725;48.068;20.832;2022-10-15T06:25:28;45.00;;;26.15;;
58123;SDS011;46725;48.068;20.832;2022-10-15T06:27:54;42.85;;;24.92;;
58123;SDS011;46725;48.068;20.832;2022-10-15T06:30:20;42.70;;;25.08;;
58123;SDS011;46725;48.068;20.832;2022-10-15T06:32:50;37.22;;;22.73;;
58123;SDS011;46725;48.068;20.832;2022-10-15T06:35:17;37.05;;;22.65;;
58123;SDS011;46725;48.068;20.832;2022-10-15T06:37:43;38.15;;;23.23;;
58123;SDS011;46725;48.068;20.832;2022-10-15T06:40:09;38.60;;;22.75;;
58123;SDS011;46725;48.068;20.832;2022-10-15T06:42:36;43.03;;;22.10;;
58123;SDS011;46725;48.068;20.832;2022-10-15T06:45:02;39.35;;;22.85;;
58123;SDS011;46725;48.068;20.832;2022-10-15T06:47:29;39.55;;;23.20;;
58123;SDS011;46725;48.068;20.832;2022-10-15T06:49:55;38.97;;;21.73;;
58123;SDS011;46725;48.068;20.832;2022-10-15T06:52:21;36.47;;;22.25;;
58123;SDS011;46725;48.068;20.832;2022-10-15T06:54:48;39.83;;;21.70;;
58123;SDS011;46725;48.068;20.832;2022-10-15T06:57:14;37.38;;;22.35;;
58123;SDS011;46725;48.068;20.832;2022-10-15T06:59:43;36.63;;;22.65;;
58123;SDS011;46725;48.068;20.832;2022-10-15T07:02:09;42.05;;;23.17;;
58123;SDS011;46725;48.068;20.832;2022-10-15T07:04:35;36.97;;;22.33;;
58123;SDS011;46725;48.068;20.832;2022-10-15T07:07:02;41.58;;;23.95;;
58123;SDS011;46725;48.068;20.832;2022-10-15T07:09:28;39.25;;;23.73;;
58123;SDS011;46725;48.068;20.832;2022-10-15T07:11:54;42.78;;;23.55;;
58123;SDS011;46725;48.068;20.832;2022-10-15T07:14:20;39.60;;;23.67;;
58123;SDS011;46725;48.068;20.832;2022-10-15T07:16:46;41.35;;;23.77;;
58123;SDS011;46725;48.068;20.832;2022-10-15T07:19:12;38.38;;;22.48;;
58123;SDS011;46725;48.068;20.832;2022-10-15T07:21:38;38.63;;;23.98;;
58123;SDS011;46725;48.068;20.832;2022-10-15T07:24:05;37.90;;;23.35;;
58123;SDS011;46725;48.068;20.832;2022-10-15T07:26:31;36.25;;;22.88;;
58123;SDS011;46725;48.068;20.832;2022-10-15T07:28:57;37.92;;;23.10;;
58123;SDS011;46725;48.068;20.832;2022-10-15T07:31:23;39.92;;;23.48;;
58123;SDS011;46725;48.068;20.832;2022-10-15T07:33:49;38.25;;;23.98;;
58123;SDS011;46725;48.068;20.832;2022-10-15T07:36:15;37.80;;;22.20;;
58123;SDS011;46725;48.068;20.832;2022-10-15T07:38:41;40.17;;;23.70;;
58123;SDS011;46725;48.068;20.832;2022-10-15T07:41:08;36.33;;;22.70;;
58123;SDS011;46725;48.068;20.832;2022-10-15T07:43:35;39.85;;;24.17;;
58123;SDS011;46725;48.068;20.832;2022-10-15T07:46:02;41.90;;;24.33;;
58123;SDS011;46725;48.068;20.832;2022-10-15T07:48:28;42.42;;;25.15;;
58123;SDS011;46725;48.068;20.832;2022-10-15T07:50:57;43.10;;;25.55;;
58123;SDS011;46725;48.068;20.832;2022-10-15T07:53:23;40.50;;;23.38;;
58123;SDS011;46725;48.068;20.832;2022-10-15T07:55:50;43.05;;;27.92;;
58123;SDS011;46725;48.068;20.832;2022-10-15T07:58:16;49.63;;;25.85;;
58123;SDS011;46725;48.068;20.832;2022-10-15T08:00:42;41.60;;;24.55;;
58123;SDS011;46725;48.068;20.832;2022-10-15T08:03:08;41.50;;;23.80;;
58123;SDS011;46725;48.068;20.832;2022-10-15T08:05:34;34.92;;;21.50;;
58123;SDS011;46725;48.068;20.832;2022-10-15T08:08:00;38.35;;;23.05;;
58123;SDS011;46725;48.068;20.832;2022-10-15T08:10:26;36.20;;;23.08;;
58123;SDS011;46725;48.068;20.832;2022-10-15T08:12:52;38.25;;;23.50;;
58123;SDS011;46725;48.068;20.832;2022-10-15T08:15:18;35.20;;;20.17;;
58123;SDS011;46725;48.068;20.832;2022-10-15T08:17:45;36.88;;;21.27;;
58123;SDS011;46725;48.068;20.832;2022-10-15T08:20:11;37.53;;;21.42;;
58123;SDS011;46725;48.068;20.832;2022-10-15T08:22:37;38.85;;;21.88;;
58123;SDS011;46725;48.068;20.832;2022-10-15T08:25:03;34.63;;;22.10;;
58123;SDS011;46725;48.068;20.832;2022-10-15T08:27:29;32.78;;;18.95;;
58123;SDS011;46725;48.068;20.832;2022-10-15T08:29:56;27.17;;;16.52;;
58123;SDS011;46725;48.068;20.832;2022-10-15T08:32:22;31.00;;;16.83;;
58123;SDS011;46725;48.068;20.832;2022-10-15T08:34:48;32.60;;;18.27;;
58123;SDS011;46725;48.068;20.832;2022-10-15T08:37:14;24.15;;;15.65;;
58123;SDS011;46725;48.068;20.832;2022-10-15T08:39:40;32.42;;;15.25;;
58123;SDS011;46725;48.068;20.832;2022-10-15T08:42:11;27.00;;;14.00;;
58123;SDS011;46725;48.068;20.832;2022-10-15T08:47:05;14.35;;;9.88;;
58123;SDS011;46725;48.068;20.832;2022-10-15T08:49:34;17.48;;;9.93;;
58123;SDS011;46725;48.068;20.832;2022-10-15T08:52:19;17.60;;;9.57;;
58123;SDS011;46725;48.068;20.832;2022-10-15T08:54:47;18.05;;;9.48;;
58123;SDS011;46725;48.068;20.832;2022-10-15T08:57:16;17.55;;;9.63;;
58123;SDS011;46725;48.068;20.832;2022-10-15T08:59:45;15.15;;;9.02;;
58123;SDS011;46725;48.068;20.832;2022-10-15T09:04:44;18.23;;;9.18;;
58123;SDS011;46725;48.068;20.832;2022-10-15T09:07:16;16.77;;;9.95;;
58123;SDS011;46725;48.068;20.832;2022-10-15T09:09:48;14.43;;;9.15;;
58123;SDS011;46725;48.068;20.832;2022-10-15T09:14:54;18.23;;;9.07;;
58123;SDS011;46725;48.068;20.832;2022-10-15T09:17:24;16.70;;;9.32;;
58123;SDS011;46725;48.068;20.832;2022-10-15T09:19:51;18.77;;;9.00;;
58123;SDS011;46725;48.068;20.832;2022-10-15T09:22:20;17.27;;;9.05;;
58123;SDS011;46725;48.068;20.832;2022-10-15T09:24:47;17.08;;;8.93;;
58123;SDS011;46725;48.068;20.832;2022-10-15T09:27:33;15.77;;;8.32;;
58123;SDS011;46725;48.068;20.832;2022-10-15T09:32:47;16.00;;;8.30;;
58123;SDS011;46725;48.068;20.832;2022-10-15T09:35:19;14.43;;;8.77;;
58123;SDS011;46725;48.068;20.832;2022-10-15T09:37:48;18.55;;;8.85;;
58123;SDS011;46725;48.068;20.832;2022-10-15T09:42:42;16.50;;;9.70;;
58123;SDS011;46725;48.068;20.832;2022-10-15T09:45:10;18.25;;;10.15;;
58123;SDS011;46725;48.068;20.832;2022-10-15T09:47:38;14.73;;;9.48;;
58123;SDS011;46725;48.068;20.832;2022-10-15T09:50:06;18.48;;;9.98;;
58123;SDS011;46725;48.068;20.832;2022-10-15T09:57:44;22.38;;;11.82;;
58123;SDS011;46725;48.068;20.832;2022-10-15T10:00:11;17.63;;;10.48;;
58123;SDS011;46725;48.068;20.832;2022-10-15T10:02:38;16.00;;;10.52;;
58123;SDS011;46725;48.068;20.832;2022-10-15T10:07:49;19.08;;;9.25;;
58123;SDS011;46725;48.068;20.832;2022-10-15T10:10:22;18.38;;;8.98;;
58123;SDS011;46725;48.068;20.832;2022-10-15T10:12:49;15.10;;;9.50;;
58123;SDS011;46725;48.068;20.832;2022-10-15T10:17:51;14.07;;;8.85;;
58123;SDS011;46725;48.068;20.832;2022-10-15T10:20:19;13.73;;;7.80;;
58123;SDS011;46725;48.068;20.832;2022-10-15T10:27:56;14.25;;;8.93;;
58123;SDS011;46725;48.068;20.832;2022-10-15T10:30:22;15.60;;;8.52;;
58123;SDS011;46725;48.068;20.832;2022-10-15T10:32:53;17.05;;;8.45;;
58123;SDS011;46725;48.068;20.832;2022-10-15T10:35:22;13.52;;;7.72;;
58123;SDS011;46725;48.068;20.832;2022-10-15T10:37:48;12.75;;;7.30;;
58123;SDS011;46725;48.068;20.832;2022-10-15T10:40:28;12.40;;;7.35;;
58123;SDS011;46725;48.068;20.832;2022-10-15T10:43:17;13.27;;;7.80;;
58123;SDS011;46725;48.068;20.832;2022-10-15T10:45:53;11.77;;;6.78;;
58123;SDS011;46725;48.068;20.832;2022-10-15T10:48:27;18.05;;;8.02;;
58123;SDS011;46725;48.068;20.832;2022-10-15T10:58:47;14.50;;;6.75;;
58123;SDS011;46725;48.068;20.832;2022-10-15T11:01:15;14.18;;;8.10;;
58123;SDS011;46725;48.068;20.832;2022-10-15T11:03:43;14.07;;;8.13;;
58123;SDS011;46725;48.068;20.832;2022-10-15T11:13:51;16.55;;;9.32;;
58123;SDS011;46725;48.068;20.832;2022-10-15T11:18:55;15.13;;;8.43;;
58123;SDS011;46725;48.068;20.832;2022-10-15T11:32:45;11.52;;;6.75;;
58123;SDS011;46725;48.068;20.832;2022-10-15T11:38:37;13.77;;;7.55;;
58123;SDS011;46725;48.068;20.832;2022-10-15T11:44:11;13.63;;;7.78;;
58123;SDS011;46725;48.068;20.832;2022-10-15T11:56:29;12.38;;;7.50;;
58123;SDS011;46725;48.068;20.832;2022-10-15T11:59:02;14.18;;;7.47;;
58123;SDS011;46725;48.068;20.832;2022-10-15T12:01:33;11.18;;;7.20;;
58123;SDS011;46725;48.068;20.832;2022-10-15T12:04:03;15.57;;;8.30;;
58123;SDS011;46725;48.068;20.832;2022-10-15T12:06:32;14.45;;;7.72;;
58123;SDS011;46725;48.068;20.832;2022-10-15T12:09:00;11.77;;;6.82;;
58123;SDS011;46725;48.068;20.832;2022-10-15T12:19:46;14.05;;;7.57;;
58123;SDS011;46725;48.068;20.832;2022-10-15T12:22:13;13.57;;;6.82;;
58123;SDS011;46725;48.068;20.832;2022-10-15T12:24:55;13.55;;;7.15;;
58123;SDS011;46725;48.068;20.832;2022-10-15T12:27:22;13.70;;;7.25;;
58123;SDS011;46725;48.068;20.832;2022-10-15T12:30:10;13.93;;;7.32;;
58123;SDS011;46725;48.068;20.832;2022-10-15T12:35:17;13.40;;;7.10;;
58123;SDS011;46725;48.068;20.832;2022-10-15T12:37:44;12.00;;;6.72;;
58123;SDS011;46725;48.068;20.832;2022-10-15T12:43:20;11.13;;;6.80;;
58123;SDS011;46725;48.068;20.832;2022-10-15T12:45:40;11.93;;;6.63;;
58123;SDS011;46725;48.068;20.832;2022-10-15T12:50:39;12.05;;;7.07;;
58123;SDS011;46725;48.068;20.832;2022-10-15T12:58:41;14.10;;;6.97;;
58123;SDS011;46725;48.068;20.832;2022-10-15T13:06:12;10.60;;;6.80;;
58123;SDS011;46725;48.068;20.832;2022-10-15T13:08:41;10.88;;;7.13;;
58123;SDS011;46725;48.068;20.832;2022-10-15T13:11:11;14.15;;;8.02;;
58123;SDS011;46725;48.068;20.832;2022-10-15T13:13:42;18.00;;;8.30;;
58123;SDS011;46725;48.068;20.832;2022-10-15T13:16:10;11.82;;;7.00;;
58123;SDS011;46725;48.068;20.832;2022-10-15T13:18:37;12.18;;;6.90;;
58123;SDS011;46725;48.068;20.832;2022-10-15T13:21:04;13.50;;;7.15;;
58123;SDS011;46725;48.068;20.832;2022-10-15T13:23:31;11.80;;;6.85;;
58123;SDS011;46725;48.068;20.832;2022-10-15T13:28:36;11.25;;;6.60;;
58123;SDS011;46725;48.068;20.832;2022-10-15T13:31:11;13.23;;;7.35;;
58123;SDS011;46725;48.068;20.832;2022-10-15T13:33:38;15.65;;;8.13;;
58123;SDS011;46725;48.068;20.832;2022-10-15T13:36:06;12.52;;;6.70;;
58123;SDS011;46725;48.068;20.832;2022-10-15T13:38:32;14.15;;;7.85;;
58123;SDS011;46725;48.068;20.832;2022-10-15T13:41:00;11.85;;;6.70;;
58123;SDS011;46725;48.068;20.832;2022-10-15T13:43:26;16.63;;;7.93;;
58123;SDS011;46725;48.068;20.832;2022-10-15T13:45:56;13.05;;;7.00;;
58123;SDS011;46725;48.068;20.832;2022-10-15T13:48:24;11.65;;;6.65;;
58123;SDS011;46725;48.068;20.832;2022-10-15T13:50:53;19.48;;;11.65;;
58123;SDS011;46725;48.068;20.832;2022-10-15T13:55:50;12.98;;;7.38;;
58123;SDS011;46725;48.068;20.832;2022-10-15T14:01:20;15.88;;;7.15;;
58123;SDS011;46725;48.068;20.832;2022-10-15T14:03:43;17.73;;;8.80;;
58123;SDS011;46725;48.068;20.832;2022-10-15T14:08:39;13.98;;;8.15;;
58123;SDS011;46725;48.068;20.832;2022-10-15T14:11:05;14.13;;;7.82;;
58123;SDS011;46725;48.068;20.832;2022-10-15T14:13:31;17.63;;;7.80;;
58123;SDS011;46725;48.068;20.832;2022-10-15T14:15:58;10.07;;;7.05;;
58123;SDS011;46725;48.068;20.832;2022-10-15T14:18:30;16.13;;;7.25;;
58123;SDS011;46725;48.068;20.832;2022-10-15T14:20:57;14.52;;;6.95;;
58123;SDS011;46725;48.068;20.832;2022-10-15T14:23:24;14.75;;;7.40;;
58123;SDS011;46725;48.068;20.832;2022-10-15T14:26:01;13.55;;;7.75;;
58123;SDS011;46725;48.068;20.832;2022-10-15T14:28:28;13.38;;;7.05;;
58123;SDS011;46725;48.068;20.832;2022-10-15T14:30:55;12.88;;;7.70;;
58123;SDS011;46725;48.068;20.832;2022-10-15T14:38:38;12.57;;;7.32;;
58123;SDS011;46725;48.068;20.832;2022-10-15T14:41:46;13.52;;;7.72;;
58123;SDS011;46725;48.068;20.832;2022-10-15T14:44:04;18.02;;;9.80;;
58123;SDS011;46725;48.068;20.832;2022-10-15T14:46:34;19.00;;;11.50;;
58123;SDS011;46725;48.068;20.832;2022-10-15T14:49:01;22.65;;;11.35;;
58123;SDS011;46725;48.068;20.832;2022-10-15T14:51:27;18.88;;;10.73;;
58123;SDS011;46725;48.068;20.832;2022-10-15T14:53:53;21.50;;;9.63;;
58123;SDS011;46725;48.068;20.832;2022-10-15T14:56:23;21.75;;;9.45;;
58123;SDS011;46725;48.068;20.832;2022-10-15T14:58:51;14.98;;;8.15;;
58123;SDS011;46725;48.068;20.832;2022-10-15T15:01:18;18.58;;;9.23;;
58123;SDS011;46725;48.068;20.832;2022-10-15T15:03:47;17.27;;;8.90;;
58123;SDS011;46725;48.068;20.832;2022-10-15T15:06:13;15.93;;;8.90;;
58123;SDS011;46725;48.068;20.832;2022-10-15T15:08:39;19.55;;;9.68;;
58123;SDS011;46725;48.068;20.832;2022-10-15T15:11:06;19.35;;;8.05;;
58123;SDS011;46725;48.068;20.832;2022-10-15T15:13:36;17.25;;;7.97;;
58123;SDS011;46725;48.068;20.832;2022-10-15T15:16:03;16.33;;;7.53;;
58123;SDS011;46725;48.068;20.832;2022-10-15T15:18:29;18.17;;;8.15;;
58123;SDS011;46725;48.068;20.832;2022-10-15T15:20:56;11.68;;;7.43;;
58123;SDS011;46725;48.068;20.832;2022-10-15T15:23:24;13.10;;;7.65;;
58123;SDS011;46725;48.068;20.832;2022-10-15T15:25:52;12.45;;;7.80;;
58123;SDS011;46725;48.068;20.832;2022-10-15T15:28:19;13.05;;;8.00;;
58123;SDS011;46725;48.068;20.832;2022-10-15T15:30:45;13.55;;;8.35;;
58123;SDS011;46725;48.068;20.832;2022-10-15T15:33:13;14.70;;;7.78;;
58123;SDS011;46725;48.068;20.832;2022-10-15T15:35:45;14.90;;;8.60;;
58123;SDS011;46725;48.068;20.832;2022-10-15T15:38:19;13.63;;;7.88;;
58123;SDS011;46725;48.068;20.832;2022-10-15T15:40:46;12.13;;;7.38;;
58123;SDS011;46725;48.068;20.832;2022-10-15T15:43:13;13.98;;;7.70;;
58123;SDS011;46725;48.068;20.832;2022-10-15T15:45:39;12.85;;;7.75;;
58123;SDS011;46725;48.068;20.832;2022-10-15T15:48:06;13.50;;;7.75;;
58123;SDS011;46725;48.068;20.832;2022-10-15T15:50:32;13.13;;;7.90;;
58123;SDS011;46725;48.068;20.832;2022-10-15T15:52:59;11.00;;;7.30;;
58123;SDS011;46725;48.068;20.832;2022-10-15T15:55:25;16.73;;;8.27;;
58123;SDS011;46725;48.068;20.832;2022-10-15T15:57:51;12.00;;;7.82;;
58123;SDS011;46725;48.068;20.832;2022-10-15T16:00:18;12.15;;;7.72;;
58123;SDS011;46725;48.068;20.832;2022-10-15T16:02:44;16.45;;;7.70;;
58123;SDS011;46725;48.068;20.832;2022-10-15T16:05:11;13.80;;;7.85;;
58123;SDS011;46725;48.068;20.832;2022-10-15T16:07:38;14.38;;;8.18;;
58123;SDS011;46725;48.068;20.832;2022-10-15T16:10:04;14.57;;;7.95;;
58123;SDS011;46725;48.068;20.832;2022-10-15T16:12:33;16.42;;;8.23;;
58123;SDS011;46725;48.068;20.832;2022-10-15T16:14:59;16.60;;;8.90;;
58123;SDS011;46725;48.068;20.832;2022-10-15T16:17:25;15.35;;;9.80;;
58123;SDS011;46725;48.068;20.832;2022-10-15T16:19:51;19.63;;;11.63;;
58123;SDS011;46725;48.068;20.832;2022-10-15T16:22:17;23.13;;;13.25;;
58123;SDS011;46725;48.068;20.832;2022-10-15T16:24:43;18.90;;;11.65;;
58123;SDS011;46725;48.068;20.832;2022-10-15T16:27:09;20.02;;;12.32;;
58123;SDS011;46725;48.068;20.832;2022-10-15T16:29:36;25.05;;;13.02;;
58123;SDS011;46725;48.068;20.832;2022-10-15T16:32:02;24.90;;;13.70;;
58123;SDS011;46725;48.068;20.832;2022-10-15T16:34:28;22.30;;;12.80;;
58123;SDS011;46725;48.068;20.832;2022-10-15T16:36:54;21.85;;;14.40;;
58123;SDS011;46725;48.068;20.832;2022-10-15T16:39:20;20.75;;;12.65;;
58123;SDS011;46725;48.068;20.832;2022-10-15T16:41:46;20.65;;;13.23;;
58123;SDS011;46725;48.068;20.832;2022-10-15T16:44:12;21.73;;;13.30;;
58123;SDS011;46725;48.068;20.832;2022-10-15T16:46:38;19.02;;;11.85;;